This is the latest recevied weather packets stored in our database for station/object K4DFD-13. If no packets are shown the sender has not sent any weather packets the latest 10 day(s).
| Time | Temp. | Humidity | Pressure | Rain* | Wind** | Luminosity | Snow |
|---|---|---|---|---|---|---|---|
| 1777816816 | 7.78° C | 49% | 1019.5 hPa | 0 mm | - | - | - |
| 1777809008 | 5° C | 64% | 1018.4 hPa | 0 mm | - | - | - |
| 1777802697 | 2.22° C | 72% | 1017.7 hPa | 0 mm | - | - | - |
| 1777801202 | 1.67° C | 75% | 1017.5 hPa | 0 mm | - | - | - |
| 1777800915 | 1.67° C | 74% | 1017.3 hPa | 0 mm | - | - | - |
| 1777800614 | 1.67° C | 75% | 1017.4 hPa | 0 mm | - | - | - |
| 1777800314 | 1.11° C | 78% | 1017.4 hPa | 0 mm | - | - | - |
| 1777800013 | 1.11° C | 81% | 1017.5 hPa | 0 mm | - | - | - |
| 1777799693 | 1.67° C | 79% | 1017.4 hPa | 0 mm | - | - | - |
| 1777799398 | 1.67° C | 77% | 1017.3 hPa | 0 mm | - | - | - |
| 1777799092 | 1.67° C | 76% | 1017.2 hPa | 0 mm | - | - | - |
| 1777798792 | 1.67° C | 79% | 1017.1 hPa | 0 mm | - | - | - |
| 1777798191 | 2.22° C | 77% | 1017.2 hPa | 0 mm | - | - | - |
| 1777797590 | 2.22° C | 76% | 1017.2 hPa | 0 mm | - | - | - |
| 1777797290 | 2.78° C | 75% | 1017.1 hPa | 0 mm | - | - | - |
| 1777796993 | 2.78° C | 72% | 1017 hPa | 0 mm | - | - | - |
| 1777796689 | 2.78° C | 71% | 1016.9 hPa | 0 mm | - | - | - |
| 1777796396 | 3.33° C | 71% | 1016.8 hPa | 0 mm | - | - | - |
| 1777796088 | 3.33° C | 71% | 1016.8 hPa | 0 mm | - | - | - |
| 1777795788 | 3.89° C | 69% | 1016.7 hPa | 0 mm | - | - | - |
| 1777795487 | 3.89° C | 68% | 1016.6 hPa | 0 mm | - | - | - |
| 1777795187 | 3.33° C | 68% | 1016.5 hPa | 0 mm | - | - | - |
| 1777794597 | 3.33° C | 69% | 1016.5 hPa | 0 mm | - | - | - |
| 1777793986 | 3.89° C | 68% | 1016.5 hPa | 0 mm | - | - | - |
| 1777793686 | 4.44° C | 67% | 1016.3 hPa | 0 mm | - | - | - |
* Rain latest hour (hover to see other rain measurements)
** Current wind speed in m/s (hover to see current wind gust speed)